sensor_id;sensor_type;location;lat;lon;timestamp;pressure;altitude;pressure_sealevel;temperature;humidity
19005;BME280;9635;52.078;8.648;2023-03-05T00:04:12;100811.69;;;2.30;73.52
19005;BME280;9635;52.078;8.648;2023-03-05T00:09:17;100816.47;;;2.44;73.75
19005;BME280;9635;52.078;8.648;2023-03-05T00:14:20;100806.16;;;2.14;74.88
19005;BME280;9635;52.078;8.648;2023-03-05T00:19:22;100808.56;;;2.21;73.92
19005;BME280;9635;52.078;8.648;2023-03-05T00:24:26;100812.34;;;2.59;72.85
19005;BME280;9635;52.078;8.648;2023-03-05T00:29:29;100802.56;;;2.37;73.38
19005;BME280;9635;52.078;8.648;2023-03-05T00:34:32;100793.06;;;2.32;73.75
19005;BME280;9635;52.078;8.648;2023-03-05T00:39:38;100780.88;;;2.28;73.31
19005;BME280;9635;52.078;8.648;2023-03-05T00:44:40;100782.41;;;2.11;74.23
19005;BME280;9635;52.078;8.648;2023-03-05T00:49:44;100776.66;;;2.22;73.64
19005;BME280;9635;52.078;8.648;2023-03-05T00:54:48;100773.19;;;1.76;75.75
19005;BME280;9635;52.078;8.648;2023-03-05T00:59:51;100763.88;;;2.11;75.76
19005;BME280;9635;52.078;8.648;2023-03-05T01:04:53;100762.72;;;1.49;78.76
19005;BME280;9635;52.078;8.648;2023-03-05T01:09:58;100752.78;;;1.78;78.86
19005;BME280;9635;52.078;8.648;2023-03-05T01:15:00;100740.09;;;1.86;78.73
19005;BME280;9635;52.078;8.648;2023-03-05T01:20:05;100730.44;;;1.62;79.93
19005;BME280;9635;52.078;8.648;2023-03-05T01:25:11;100718.28;;;1.80;79.60
19005;BME280;9635;52.078;8.648;2023-03-05T01:30:14;100720.78;;;1.61;80.28
19005;BME280;9635;52.078;8.648;2023-03-05T01:35:19;100719.66;;;1.21;82.46
19005;BME280;9635;52.078;8.648;2023-03-05T01:40:26;100708.69;;;1.77;80.33
19005;BME280;9635;52.078;8.648;2023-03-05T01:45:29;100697.34;;;1.95;78.89
19005;BME280;9635;52.078;8.648;2023-03-05T01:50:33;100695.97;;;1.40;80.25
19005;BME280;9635;52.078;8.648;2023-03-05T01:55:38;100688.56;;;1.49;81.12
19005;BME280;9635;52.078;8.648;2023-03-05T02:00:43;100690.94;;;1.57;79.98
19005;BME280;9635;52.078;8.648;2023-03-05T02:05:47;100697.84;;;2.05;78.60
19005;BME280;9635;52.078;8.648;2023-03-05T02:10:53;100684.91;;;1.76;79.06
19005;BME280;9635;52.078;8.648;2023-03-05T02:15:58;100674.19;;;1.79;78.60
19005;BME280;9635;52.078;8.648;2023-03-05T02:21:04;100662.66;;;1.58;79.47
19005;BME280;9635;52.078;8.648;2023-03-05T02:26:08;100654.31;;;1.45;79.67
19005;BME280;9635;52.078;8.648;2023-03-05T02:31:13;100652.19;;;1.77;78.61
19005;BME280;9635;52.078;8.648;2023-03-05T02:36:18;100645.28;;;1.94;78.50
19005;BME280;9635;52.078;8.648;2023-03-05T02:41:22;100637.88;;;2.03;78.19
19005;BME280;9635;52.078;8.648;2023-03-05T02:46:26;100635.31;;;1.79;77.51
19005;BME280;9635;52.078;8.648;2023-03-05T02:51:30;100635.91;;;1.42;79.92
19005;BME280;9635;52.078;8.648;2023-03-05T02:56:33;100632.00;;;1.74;78.54
19005;BME280;9635;52.078;8.648;2023-03-05T03:01:36;100626.63;;;1.98;77.88
19005;BME280;9635;52.078;8.648;2023-03-05T03:06:40;100608.75;;;1.81;77.95
19005;BME280;9635;52.078;8.648;2023-03-05T03:11:43;100604.44;;;1.78;78.48
19005;BME280;9635;52.078;8.648;2023-03-05T03:16:46;100599.88;;;2.04;77.21
19005;BME280;9635;52.078;8.648;2023-03-05T03:21:50;100590.19;;;2.23;76.37
19005;BME280;9635;52.078;8.648;2023-03-05T03:26:55;100594.03;;;1.95;78.26
19005;BME280;9635;52.078;8.648;2023-03-05T03:31:58;100591.72;;;1.44;80.53
19005;BME280;9635;52.078;8.648;2023-03-05T03:37:02;100582.16;;;1.84;79.99
19005;BME280;9635;52.078;8.648;2023-03-05T03:42:05;100576.53;;;1.91;79.84
19005;BME280;9635;52.078;8.648;2023-03-05T03:47:08;100568.06;;;1.39;80.73
19005;BME280;9635;52.078;8.648;2023-03-05T03:52:12;100558.41;;;1.60;81.45
19005;BME280;9635;52.078;8.648;2023-03-05T03:57:15;100563.63;;;1.40;81.34
19005;BME280;9635;52.078;8.648;2023-03-05T04:02:18;100561.19;;;1.57;81.55
19005;BME280;9635;52.078;8.648;2023-03-05T04:07:23;100554.34;;;1.52;81.99
19005;BME280;9635;52.078;8.648;2023-03-05T04:12:25;100546.19;;;1.56;81.12
19005;BME280;9635;52.078;8.648;2023-03-05T04:17:28;100544.19;;;1.63;81.23
19005;BME280;9635;52.078;8.648;2023-03-05T04:22:32;100527.38;;;1.42;80.82
19005;BME280;9635;52.078;8.648;2023-03-05T04:27:35;100521.22;;;1.41;81.30
19005;BME280;9635;52.078;8.648;2023-03-05T04:32:40;100519.81;;;1.55;81.30
19005;BME280;9635;52.078;8.648;2023-03-05T04:37:44;100512.13;;;1.48;80.87
19005;BME280;9635;52.078;8.648;2023-03-05T04:42:48;100519.56;;;1.81;79.59
19005;BME280;9635;52.078;8.648;2023-03-05T04:47:51;100509.34;;;1.72;80.02
19005;BME280;9635;52.078;8.648;2023-03-05T04:52:55;100506.84;;;1.69;79.70
19005;BME280;9635;52.078;8.648;2023-03-05T04:57:58;100502.59;;;1.85;78.86
19005;BME280;9635;52.078;8.648;2023-03-05T05:03:01;100501.94;;;1.80;78.70
19005;BME280;9635;52.078;8.648;2023-03-05T05:08:05;100488.63;;;1.61;79.50
19005;BME280;9635;52.078;8.648;2023-03-05T05:13:08;100498.78;;;1.92;78.33
19005;BME280;9635;52.078;8.648;2023-03-05T05:18:11;100493.19;;;1.58;79.04
19005;BME280;9635;52.078;8.648;2023-03-05T05:23:16;100493.22;;;1.14;79.74
19005;BME280;9635;52.078;8.648;2023-03-05T05:28:19;100483.53;;;1.57;79.40
19005;BME280;9635;52.078;8.648;2023-03-05T05:33:22;100494.22;;;1.54;79.21
19005;BME280;9635;52.078;8.648;2023-03-05T05:38:26;100493.41;;;1.31;79.59
19005;BME280;9635;52.078;8.648;2023-03-05T05:43:29;100496.25;;;1.26;80.26
19005;BME280;9635;52.078;8.648;2023-03-05T05:48:33;100503.41;;;1.45;79.81
19005;BME280;9635;52.078;8.648;2023-03-05T05:53:38;100495.25;;;1.71;79.11
19005;BME280;9635;52.078;8.648;2023-03-05T05:58:41;100495.78;;;1.59;79.43
19005;BME280;9635;52.078;8.648;2023-03-05T06:03:45;100491.28;;;1.39;80.86
19005;BME280;9635;52.078;8.648;2023-03-05T06:08:50;100488.88;;;1.35;80.00
19005;BME280;9635;52.078;8.648;2023-03-05T06:13:53;100496.47;;;0.98;82.52
19005;BME280;9635;52.078;8.648;2023-03-05T06:18:55;100486.78;;;1.63;81.00
19005;BME280;9635;52.078;8.648;2023-03-05T06:24:00;100482.56;;;0.93;82.92
19005;BME280;9635;52.078;8.648;2023-03-05T06:29:02;100495.31;;;1.27;81.73
19005;BME280;9635;52.078;8.648;2023-03-05T06:34:05;100476.84;;;1.68;80.63
19005;BME280;9635;52.078;8.648;2023-03-05T06:39:09;100483.13;;;1.45;81.87
19005;BME280;9635;52.078;8.648;2023-03-05T06:44:12;100478.34;;;1.11;83.17
19005;BME280;9635;52.078;8.648;2023-03-05T06:49:15;100478.25;;;1.57;80.96
19005;BME280;9635;52.078;8.648;2023-03-05T06:54:19;100474.38;;;1.64;80.94
19005;BME280;9635;52.078;8.648;2023-03-05T06:59:22;100463.47;;;1.51;81.00
19005;BME280;9635;52.078;8.648;2023-03-05T07:04:25;100474.50;;;1.40;81.90
19005;BME280;9635;52.078;8.648;2023-03-05T07:09:29;100469.03;;;1.01;82.64
19005;BME280;9635;52.078;8.648;2023-03-05T07:14:32;100462.50;;;1.32;84.83
19005;BME280;9635;52.078;8.648;2023-03-05T07:19:35;100469.88;;;1.23;85.35
19005;BME280;9635;52.078;8.648;2023-03-05T07:24:40;100458.44;;;1.23;86.02
19005;BME280;9635;52.078;8.648;2023-03-05T07:29:43;100463.16;;;1.37;84.52
19005;BME280;9635;52.078;8.648;2023-03-05T07:34:46;100460.28;;;1.43;84.98
19005;BME280;9635;52.078;8.648;2023-03-05T07:39:50;100452.06;;;1.69;85.05
19005;BME280;9635;52.078;8.648;2023-03-05T07:44:53;100452.53;;;1.38;85.38
19005;BME280;9635;52.078;8.648;2023-03-05T07:49:56;100454.38;;;2.18;83.27
19005;BME280;9635;52.078;8.648;2023-03-05T07:55:00;100457.75;;;2.40;84.41
19005;BME280;9635;52.078;8.648;2023-03-05T08:00:04;100451.53;;;2.98;82.89
19005;BME280;9635;52.078;8.648;2023-03-05T08:05:12;100446.13;;;3.36;82.72
19005;BME280;9635;52.078;8.648;2023-03-05T08:10:16;100435.03;;;3.45;82.00
19005;BME280;9635;52.078;8.648;2023-03-05T08:15:19;100438.06;;;2.84;81.10
19005;BME280;9635;52.078;8.648;2023-03-05T08:20:22;100436.50;;;2.80;81.14
19005;BME280;9635;52.078;8.648;2023-03-05T08:25:27;100431.53;;;2.91;80.52
19005;BME280;9635;52.078;8.648;2023-03-05T08:30:29;100431.09;;;3.00;79.43
19005;BME280;9635;52.078;8.648;2023-03-05T08:35:32;100422.09;;;2.86;78.03
19005;BME280;9635;52.078;8.648;2023-03-05T08:40:37;100420.19;;;3.24;77.22
19005;BME280;9635;52.078;8.648;2023-03-05T08:45:39;100419.13;;;2.92;76.73
19005;BME280;9635;52.078;8.648;2023-03-05T08:50:42;100417.47;;;3.43;77.03
19005;BME280;9635;52.078;8.648;2023-03-05T08:55:53;100407.72;;;3.43;76.13
19005;BME280;9635;52.078;8.648;2023-03-05T09:00:56;100407.94;;;3.73;74.66
19005;BME280;9635;52.078;8.648;2023-03-05T09:06:00;100398.22;;;3.20;73.91
19005;BME280;9635;52.078;8.648;2023-03-05T09:11:07;100399.50;;;3.48;74.38
19005;BME280;9635;52.078;8.648;2023-03-05T09:16:12;100404.59;;;2.99;75.74
19005;BME280;9635;52.078;8.648;2023-03-05T09:21:16;100394.47;;;3.59;73.50
19005;BME280;9635;52.078;8.648;2023-03-05T09:26:20;100394.47;;;2.71;73.98
19005;BME280;9635;52.078;8.648;2023-03-05T09:31:23;100396.53;;;3.37;73.12
19005;BME280;9635;52.078;8.648;2023-03-05T09:36:28;100387.88;;;3.84;73.25
19005;BME280;9635;52.078;8.648;2023-03-05T09:41:39;100397.19;;;4.26;73.20
19005;BME280;9635;52.078;8.648;2023-03-05T09:46:51;100383.69;;;4.13;70.15
19005;BME280;9635;52.078;8.648;2023-03-05T09:52:01;100378.28;;;4.30;69.84
19005;BME280;9635;52.078;8.648;2023-03-05T09:57:12;100372.56;;;3.89;70.54
19005;BME280;9635;52.078;8.648;2023-03-05T10:02:20;100374.84;;;3.46;70.52
19005;BME280;9635;52.078;8.648;2023-03-05T10:07:27;100395.31;;;1.95;76.53
19005;BME280;9635;52.078;8.648;2023-03-05T10:12:39;100386.81;;;2.46;78.97
19005;BME280;9635;52.078;8.648;2023-03-05T10:17:59;100383.00;;;2.32;79.77
19005;BME280;9635;52.078;8.648;2023-03-05T10:23:20;100373.34;;;3.05;79.71
19005;BME280;9635;52.078;8.648;2023-03-05T10:28:34;100366.75;;;2.95;79.23
19005;BME280;9635;52.078;8.648;2023-03-05T10:33:43;100354.59;;;2.91;80.35
19005;BME280;9635;52.078;8.648;2023-03-05T10:39:00;100353.28;;;3.00;79.63
19005;BME280;9635;52.078;8.648;2023-03-05T10:44:12;100342.13;;;4.90;78.02
19005;BME280;9635;52.078;8.648;2023-03-05T10:49:19;100327.28;;;6.59;71.58
19005;BME280;9635;52.078;8.648;2023-03-05T10:54:25;100329.28;;;7.10;68.87
19005;BME280;9635;52.078;8.648;2023-03-05T10:59:32;100305.41;;;7.59;66.44
19005;BME280;9635;52.078;8.648;2023-03-05T11:04:36;100298.16;;;6.69;65.25
19005;BME280;9635;52.078;8.648;2023-03-05T11:09:39;100300.91;;;6.13;63.66
19005;BME280;9635;52.078;8.648;2023-03-05T11:14:45;100301.97;;;4.78;66.74
19005;BME280;9635;52.078;8.648;2023-03-05T11:19:49;100294.38;;;4.56;69.12
19005;BME280;9635;52.078;8.648;2023-03-05T11:25:04;100296.09;;;4.88;68.16
19005;BME280;9635;52.078;8.648;2023-03-05T11:30:20;100291.94;;;4.68;65.48
19005;BME280;9635;52.078;8.648;2023-03-05T11:35:30;100283.56;;;4.44;65.06
19005;BME280;9635;52.078;8.648;2023-03-05T11:40:34;100271.22;;;4.43;64.76
19005;BME280;9635;52.078;8.648;2023-03-05T11:45:39;100269.94;;;4.80;66.04
19005;BME280;9635;52.078;8.648;2023-03-05T11:50:44;100269.25;;;5.51;65.27
19005;BME280;9635;52.078;8.648;2023-03-05T11:55:51;100252.28;;;7.42;56.64
19005;BME280;9635;52.078;8.648;2023-03-05T12:00:56;100241.16;;;8.10;52.49
19005;BME280;9635;52.078;8.648;2023-03-05T12:06:02;100233.75;;;8.14;53.47
19005;BME280;9635;52.078;8.648;2023-03-05T12:11:13;100228.94;;;7.82;52.40
19005;BME280;9635;52.078;8.648;2023-03-05T12:16:25;100219.19;;;8.18;51.01
19005;BME280;9635;52.078;8.648;2023-03-05T12:21:33;100210.59;;;8.26;51.73
19005;BME280;9635;52.078;8.648;2023-03-05T12:26:55;100208.91;;;6.06;54.56
19005;BME280;9635;52.078;8.648;2023-03-05T12:38:00;100202.97;;;4.57;59.36
19005;BME280;9635;52.078;8.648;2023-03-05T12:43:29;100193.59;;;5.39;57.31
19005;BME280;9635;52.078;8.648;2023-03-05T12:48:44;100184.41;;;6.13;54.49
19005;BME280;9635;52.078;8.648;2023-03-05T12:53:50;100180.22;;;7.53;56.23
19005;BME280;9635;52.078;8.648;2023-03-05T12:58:55;100168.72;;;7.14;50.81
19005;BME280;9635;52.078;8.648;2023-03-05T13:04:16;100160.47;;;5.58;56.01
19005;BME280;9635;52.078;8.648;2023-03-05T13:09:25;100154.19;;;7.05;55.11
19005;BME280;9635;52.078;8.648;2023-03-05T13:14:32;100140.88;;;7.55;49.81
19005;BME280;9635;52.078;8.648;2023-03-05T13:19:40;100139.72;;;6.57;51.98
19005;BME280;9635;52.078;8.648;2023-03-05T13:24:44;100129.16;;;6.68;51.92
19005;BME280;9635;52.078;8.648;2023-03-05T13:29:50;100119.13;;;6.84;53.27
19005;BME280;9635;52.078;8.648;2023-03-05T13:34:55;100119.47;;;7.05;51.22
19005;BME280;9635;52.078;8.648;2023-03-05T13:40:03;100114.81;;;7.70;48.39
19005;BME280;9635;52.078;8.648;2023-03-05T13:45:25;100103.22;;;8.06;48.18
19005;BME280;9635;52.078;8.648;2023-03-05T13:50:29;100095.50;;;7.66;49.27
19005;BME280;9635;52.078;8.648;2023-03-05T13:55:34;100083.72;;;8.64;47.28
19005;BME280;9635;52.078;8.648;2023-03-05T14:00:37;100065.47;;;8.80;45.67
19005;BME280;9635;52.078;8.648;2023-03-05T14:05:42;100061.47;;;8.39;45.09
19005;BME280;9635;52.078;8.648;2023-03-05T14:10:46;100050.94;;;7.78;47.19
19005;BME280;9635;52.078;8.648;2023-03-05T14:16:03;100054.09;;;7.72;45.48
19005;BME280;9635;52.078;8.648;2023-03-05T14:21:08;100051.00;;;7.41;46.56
19005;BME280;9635;52.078;8.648;2023-03-05T14:26:36;100036.63;;;7.55;46.02
19005;BME280;9635;52.078;8.648;2023-03-05T14:31:46;100035.50;;;7.46;46.75
19005;BME280;9635;52.078;8.648;2023-03-05T14:36:51;100028.56;;;6.81;48.21
19005;BME280;9635;52.078;8.648;2023-03-05T14:42:12;100017.38;;;6.12;49.62
19005;BME280;9635;52.078;8.648;2023-03-05T14:47:15;100006.25;;;5.93;50.16
19005;BME280;9635;52.078;8.648;2023-03-05T14:52:20;100003.47;;;5.82;50.02
19005;BME280;9635;52.078;8.648;2023-03-05T14:57:27;99991.69;;;5.71;51.93
19005;BME280;9635;52.078;8.648;2023-03-05T15:02:30;99995.72;;;5.37;52.33
19005;BME280;9635;52.078;8.648;2023-03-05T15:07:33;99991.25;;;5.11;54.00
19005;BME280;9635;52.078;8.648;2023-03-05T15:12:37;99977.41;;;4.62;54.46
19005;BME280;9635;52.078;8.648;2023-03-05T15:17:41;99973.41;;;4.84;54.57
19005;BME280;9635;52.078;8.648;2023-03-05T15:22:45;99975.19;;;4.98;54.56
19005;BME280;9635;52.078;8.648;2023-03-05T15:27:49;99971.66;;;5.12;54.28
19005;BME280;9635;52.078;8.648;2023-03-05T15:32:53;99977.75;;;4.85;55.09
19005;BME280;9635;52.078;8.648;2023-03-05T15:37:56;99967.75;;;5.44;53.83
19005;BME280;9635;52.078;8.648;2023-03-05T15:43:01;99961.84;;;5.39;54.36
19005;BME280;9635;52.078;8.648;2023-03-05T15:48:04;99965.22;;;5.01;55.30
19005;BME280;9635;52.078;8.648;2023-03-05T15:53:08;99962.16;;;4.93;55.68
19005;BME280;9635;52.078;8.648;2023-03-05T15:58:14;99948.19;;;5.31;54.95
19005;BME280;9635;52.078;8.648;2023-03-05T16:03:18;99955.53;;;5.00;55.84
19005;BME280;9635;52.078;8.648;2023-03-05T16:08:20;99950.44;;;4.54;55.45
19005;BME280;9635;52.078;8.648;2023-03-05T16:13:25;99946.75;;;4.98;56.11
19005;BME280;9635;52.078;8.648;2023-03-05T16:18:30;99937.03;;;4.70;55.65
19005;BME280;9635;52.078;8.648;2023-03-05T16:23:35;99940.44;;;4.72;56.25
19005;BME280;9635;52.078;8.648;2023-03-05T16:28:39;99933.31;;;4.73;55.72
19005;BME280;9635;52.078;8.648;2023-03-05T16:33:42;99938.19;;;4.52;56.29
19005;BME280;9635;52.078;8.648;2023-03-05T16:38:46;99930.47;;;4.76;56.44
19005;BME280;9635;52.078;8.648;2023-03-05T16:43:51;99929.28;;;4.10;57.44
19005;BME280;9635;52.078;8.648;2023-03-05T16:48:57;99923.94;;;4.38;56.90
19005;BME280;9635;52.078;8.648;2023-03-05T16:54:00;99924.06;;;4.23;58.13
19005;BME280;9635;52.078;8.648;2023-03-05T16:59:04;99914.91;;;4.41;56.82
19005;BME280;9635;52.078;8.648;2023-03-05T17:04:07;99920.25;;;4.12;57.65
19005;BME280;9635;52.078;8.648;2023-03-05T17:09:10;99921.97;;;4.42;57.27
19005;BME280;9635;52.078;8.648;2023-03-05T17:14:14;99910.19;;;4.32;56.70
19005;BME280;9635;52.078;8.648;2023-03-05T17:19:17;99895.56;;;4.39;57.03
19005;BME280;9635;52.078;8.648;2023-03-05T17:24:20;99903.88;;;4.61;56.60
19005;BME280;9635;52.078;8.648;2023-03-05T17:29:24;99904.66;;;4.49;57.13
19005;BME280;9635;52.078;8.648;2023-03-05T17:34:27;99900.03;;;4.24;57.57
19005;BME280;9635;52.078;8.648;2023-03-05T17:39:38;99892.41;;;4.47;56.81
19005;BME280;9635;52.078;8.648;2023-03-05T17:44:42;99897.34;;;4.38;56.99
19005;BME280;9635;52.078;8.648;2023-03-05T17:49:45;99888.50;;;4.52;56.75
19005;BME280;9635;52.078;8.648;2023-03-05T17:54:48;99897.53;;;4.64;56.90
19005;BME280;9635;52.078;8.648;2023-03-05T17:59:54;99886.13;;;4.62;56.56
19005;BME280;9635;52.078;8.648;2023-03-05T18:04:57;99885.22;;;4.34;57.24
19005;BME280;9635;52.078;8.648;2023-03-05T18:10:01;99880.94;;;4.32;57.31
19005;BME280;9635;52.078;8.648;2023-03-05T18:15:08;99883.19;;;4.38;57.00
19005;BME280;9635;52.078;8.648;2023-03-05T18:20:23;99876.84;;;3.98;58.94
19005;BME280;9635;52.078;8.648;2023-03-05T18:25:27;99875.16;;;3.97;58.74
19005;BME280;9635;52.078;8.648;2023-03-05T18:30:39;99873.72;;;4.20;58.59
19005;BME280;9635;52.078;8.648;2023-03-05T18:35:42;99868.22;;;4.23;58.54
19005;BME280;9635;52.078;8.648;2023-03-05T18:40:45;99861.28;;;3.91;59.60
19005;BME280;9635;52.078;8.648;2023-03-05T18:45:51;99863.69;;;3.82;60.46
19005;BME280;9635;52.078;8.648;2023-03-05T18:50:55;99866.72;;;4.04;60.23
19005;BME280;9635;52.078;8.648;2023-03-05T18:55:57;99860.59;;;4.45;59.89
19005;BME280;9635;52.078;8.648;2023-03-05T19:01:01;99865.53;;;4.51;59.99
19005;BME280;9635;52.078;8.648;2023-03-05T19:06:05;99858.50;;;4.50;61.00
19005;BME280;9635;52.078;8.648;2023-03-05T19:11:14;99849.88;;;4.32;61.56
19005;BME280;9635;52.078;8.648;2023-03-05T19:16:21;99849.88;;;4.32;62.27
19005;BME280;9635;52.078;8.648;2023-03-05T19:21:24;99848.09;;;3.76;64.34
19005;BME280;9635;52.078;8.648;2023-03-05T19:26:27;99842.88;;;4.03;63.94
19005;BME280;9635;52.078;8.648;2023-03-05T19:31:31;99835.94;;;4.00;63.71
19005;BME280;9635;52.078;8.648;2023-03-05T19:36:34;99833.59;;;3.95;64.08
19005;BME280;9635;52.078;8.648;2023-03-05T19:41:37;99827.03;;;4.01;63.86
19005;BME280;9635;52.078;8.648;2023-03-05T19:46:41;99824.38;;;4.01;63.34
19005;BME280;9635;52.078;8.648;2023-03-05T19:51:44;99820.00;;;3.86;62.92
19005;BME280;9635;52.078;8.648;2023-03-05T19:56:48;99819.34;;;3.97;62.98
19005;BME280;9635;52.078;8.648;2023-03-05T20:01:55;99816.41;;;3.58;63.11
19005;BME280;9635;52.078;8.648;2023-03-05T20:06:58;99814.13;;;3.81;62.59
19005;BME280;9635;52.078;8.648;2023-03-05T20:12:02;99815.56;;;3.86;62.52
19005;BME280;9635;52.078;8.648;2023-03-05T20:17:07;99809.59;;;3.83;62.68
19005;BME280;9635;52.078;8.648;2023-03-05T20:22:10;99805.50;;;3.77;62.62
19005;BME280;9635;52.078;8.648;2023-03-05T20:27:13;99806.75;;;3.57;62.84
19005;BME280;9635;52.078;8.648;2023-03-05T20:32:17;99805.69;;;3.74;62.80
19005;BME280;9635;52.078;8.648;2023-03-05T20:37:51;99799.72;;;3.70;63.29
19005;BME280;9635;52.078;8.648;2023-03-05T20:43:10;99799.41;;;3.89;62.37
19005;BME280;9635;52.078;8.648;2023-03-05T20:48:15;99791.56;;;3.73;62.95
19005;BME280;9635;52.078;8.648;2023-03-05T20:53:18;99785.41;;;3.73;62.73
19005;BME280;9635;52.078;8.648;2023-03-05T20:58:21;99783.41;;;3.62;63.03
19005;BME280;9635;52.078;8.648;2023-03-05T21:03:25;99772.03;;;3.60;62.95
19005;BME280;9635;52.078;8.648;2023-03-05T21:08:28;99764.06;;;3.60;62.77
19005;BME280;9635;52.078;8.648;2023-03-05T21:13:30;99751.31;;;3.80;62.30
19005;BME280;9635;52.078;8.648;2023-03-05T21:18:35;99745.84;;;3.68;62.34
19005;BME280;9635;52.078;8.648;2023-03-05T21:23:38;99738.44;;;3.45;63.70
19005;BME280;9635;52.078;8.648;2023-03-05T21:28:41;99736.94;;;3.41;64.04
19005;BME280;9635;52.078;8.648;2023-03-05T21:33:45;99734.06;;;3.58;63.51
19005;BME280;9635;52.078;8.648;2023-03-05T21:38:48;99726.22;;;3.57;63.51
19005;BME280;9635;52.078;8.648;2023-03-05T21:43:51;99718.22;;;3.42;63.84
19005;BME280;9635;52.078;8.648;2023-03-05T21:48:55;99717.56;;;3.39;63.70
19005;BME280;9635;52.078;8.648;2023-03-05T21:53:58;99701.75;;;3.52;63.73
19005;BME280;9635;52.078;8.648;2023-03-05T21:59:01;99705.13;;;3.54;63.36
19005;BME280;9635;52.078;8.648;2023-03-05T22:04:05;99692.38;;;3.46;63.87
19005;BME280;9635;52.078;8.648;2023-03-05T22:09:08;99689.78;;;3.59;63.67
19005;BME280;9635;52.078;8.648;2023-03-05T22:14:11;99672.91;;;3.45;64.04
19005;BME280;9635;52.078;8.648;2023-03-05T22:19:16;99662.22;;;3.33;64.29
19005;BME280;9635;52.078;8.648;2023-03-05T22:24:19;99662.03;;;3.36;64.28
19005;BME280;9635;52.078;8.648;2023-03-05T22:29:25;99653.38;;;3.46;64.04
19005;BME280;9635;52.078;8.648;2023-03-05T22:34:30;99642.75;;;3.46;64.39
19005;BME280;9635;52.078;8.648;2023-03-05T22:39:33;99644.69;;;3.30;64.64
19005;BME280;9635;52.078;8.648;2023-03-05T22:44:36;99627.22;;;3.26;64.73
19005;BME280;9635;52.078;8.648;2023-03-05T22:49:40;99635.00;;;3.00;65.72
19005;BME280;9635;52.078;8.648;2023-03-05T22:54:45;99629.44;;;3.05;65.60
19005;BME280;9635;52.078;8.648;2023-03-05T22:59:48;99624.19;;;3.18;65.06
19005;BME280;9635;52.078;8.648;2023-03-05T23:04:52;99620.03;;;3.28;64.82
19005;BME280;9635;52.078;8.648;2023-03-05T23:09:59;99603.91;;;3.31;64.79
19005;BME280;9635;52.078;8.648;2023-03-05T23:15:05;99605.72;;;3.16;65.25
19005;BME280;9635;52.078;8.648;2023-03-05T23:20:11;99594.06;;;2.90;66.35
19005;BME280;9635;52.078;8.648;2023-03-05T23:25:17;99601.63;;;2.68;67.58
19005;BME280;9635;52.078;8.648;2023-03-05T23:30:21;99594.84;;;2.78;67.12
19005;BME280;9635;52.078;8.648;2023-03-05T23:35:27;99597.56;;;2.76;66.96
19005;BME280;9635;52.078;8.648;2023-03-05T23:40:33;99586.41;;;2.86;67.02
19005;BME280;9635;52.078;8.648;2023-03-05T23:45:36;99594.72;;;2.79;67.09
19005;BME280;9635;52.078;8.648;2023-03-05T23:50:42;99590.19;;;2.67;67.74
19005;BME280;9635;52.078;8.648;2023-03-05T23:55:46;99586.25;;;2.44;68.54
